DLH5Y EDDM-KSAN
Flight info
| Callsign | DLH5Y |
|---|---|
| Flight time | N/A |
| Altitude | 34000 |
| Route | INPUD2S INPUD Y102 UPALA Z109 BAMKI DCT TUSKA DCT KARLI DCT GUNPA/M084F340 DCT 65N010W/M085F360 67N020W 68N030W 69N040W 69N050W DCT CANEL/N0495F360 DCT 6730N07000W/N0501F380 66N080W 6230N09000W 5530N10000W DCT KU84Q/N0477F400 DCT TCH DCT WINEN/N0481F410 Q73 EEVUN/N0479F400 Q73 LVELL LUCKI1 |
| Aircraft | A359/H-SDE2E3GHIJ3J4J5LM1ORWXY/LB1D1 |
Departure
| Time | N/A |
|---|---|
| Airport | Munich Airport (EDDM) |
Arrival
| Time | 2026-04-21 08:34 |
|---|---|
| Airport | San Diego International Airport (KSAN) |
| Time | Latitude | Longitude | Altitude | Speed | Heading |
|---|---|---|---|---|---|
| 2026-04-21 08:03 | 34.73629 | -115.34866 | 35740 ft | 473 kts | 193° |
| 2026-04-21 08:04 | 34.70478 | -115.36130 | 35741 ft | 480 kts | 194° |
| 2026-04-21 08:04 | 34.64165 | -115.38726 | 35744 ft | 478 kts | 194° |
| 2026-04-21 08:05 | 34.57911 | -115.41300 | 35745 ft | 477 kts | 194° |
| 2026-04-21 08:05 | 34.51625 | -115.43863 | 35746 ft | 475 kts | 194° |
| 2026-04-21 08:06 | 34.45511 | -115.46346 | 35776 ft | 465 kts | 198° |
| 2026-04-21 08:06 | 34.42444 | -115.47587 | 35965 ft | 466 kts | 198° |
| 2026-04-21 08:06 | 34.39363 | -115.48838 | 36000 ft | 470 kts | 199° |
| 2026-04-21 08:07 | 34.33458 | -115.52353 | 35997 ft | 478 kts | 211° |
| 2026-04-21 08:07 | 34.27719 | -115.56551 | 35997 ft | 486 kts | 211° |
| 2026-04-21 08:08 | 34.21903 | -115.60795 | 35998 ft | 486 kts | 209° |
| 2026-04-21 08:08 | 34.15746 | -115.64010 | 36002 ft | 480 kts | 201° |
| 2026-04-21 08:09 | 34.09522 | -115.66931 | 36000 ft | 480 kts | 201° |
| 2026-04-21 08:09 | 34.03311 | -115.69851 | 35848 ft | 476 kts | 201° |
| 2026-04-21 08:09 | 34.00239 | -115.71296 | 35180 ft | 474 kts | 201° |
| 2026-04-21 08:10 | 33.97151 | -115.72749 | 34227 ft | 479 kts | 201° |
| 2026-04-21 08:10 | 33.94098 | -115.74185 | 33145 ft | 474 kts | 201° |
| 2026-04-21 08:10 | 33.91023 | -115.75632 | 31470 ft | 475 kts | 201° |
| 2026-04-21 08:10 | 33.87940 | -115.77132 | 29611 ft | 480 kts | 202° |
| 2026-04-21 08:11 | 33.84883 | -115.78643 | 28082 ft | 476 kts | 202° |
| 2026-04-21 08:11 | 33.81833 | -115.80147 | 26910 ft | 463 kts | 202° |
| 2026-04-21 08:11 | 33.78886 | -115.81596 | 26149 ft | 452 kts | 202° |
| 2026-04-21 08:11 | 33.75986 | -115.83018 | 25658 ft | 450 kts | 202° |
| 2026-04-21 08:12 | 33.73061 | -115.84402 | 25198 ft | 449 kts | 201° |
| 2026-04-21 08:12 | 33.70164 | -115.85748 | 24818 ft | 443 kts | 201° |
| 2026-04-21 08:12 | 33.67308 | -115.87076 | 24447 ft | 439 kts | 201° |
| 2026-04-21 08:12 | 33.64471 | -115.88398 | 24073 ft | 435 kts | 201° |
| 2026-04-21 08:13 | 33.61661 | -115.89708 | 23700 ft | 432 kts | 201° |
| 2026-04-21 08:13 | 33.58869 | -115.91011 | 23327 ft | 429 kts | 201° |
| 2026-04-21 08:13 | 33.56096 | -115.92304 | 22953 ft | 426 kts | 201° |
| 2026-04-21 08:13 | 33.53403 | -115.93766 | 22576 ft | 423 kts | 209° |
| 2026-04-21 08:14 | 33.51054 | -115.95808 | 22208 ft | 413 kts | 223° |
| 2026-04-21 08:14 | 33.49201 | -115.98367 | 21847 ft | 402 kts | 234° |
| 2026-04-21 08:14 | 33.47628 | -116.01039 | 21484 ft | 394 kts | 235° |
| 2026-04-21 08:14 | 33.46095 | -116.03714 | 21118 ft | 385 kts | 235° |
| 2026-04-21 08:15 | 33.44591 | -116.06330 | 20751 ft | 377 kts | 235° |
| 2026-04-21 08:15 | 33.43109 | -116.08897 | 20382 ft | 373 kts | 235° |
| 2026-04-21 08:15 | 33.41636 | -116.11441 | 20009 ft | 371 kts | 235° |
| 2026-04-21 08:15 | 33.40168 | -116.13970 | 19635 ft | 369 kts | 235° |
| 2026-04-21 08:16 | 33.38707 | -116.16484 | 19261 ft | 367 kts | 235° |
| 2026-04-21 08:16 | 33.37254 | -116.18980 | 18887 ft | 364 kts | 235° |
| 2026-04-21 08:16 | 33.35812 | -116.21456 | 18506 ft | 359 kts | 235° |
| 2026-04-21 08:16 | 33.34323 | -116.23780 | 17981 ft | 345 kts | 227° |
| 2026-04-21 08:17 | 33.32513 | -116.25624 | 17440 ft | 341 kts | 212° |
| 2026-04-21 08:17 | 33.30445 | -116.26987 | 16894 ft | 338 kts | 206° |
| 2026-04-21 08:17 | 33.28330 | -116.28222 | 16348 ft | 340 kts | 206° |
| 2026-04-21 08:17 | 33.26213 | -116.29446 | 15866 ft | 336 kts | 206° |
| 2026-04-21 08:18 | 33.24134 | -116.30652 | 15439 ft | 325 kts | 206° |
| 2026-04-21 08:18 | 33.22141 | -116.31813 | 15025 ft | 311 kts | 206° |
| 2026-04-21 08:18 | 33.20235 | -116.32925 | 14613 ft | 300 kts | 206° |
| 2026-04-21 08:18 | 33.18388 | -116.34004 | 14198 ft | 290 kts | 206° |
| 2026-04-21 08:19 | 33.16602 | -116.35048 | 13782 ft | 282 kts | 206° |
| 2026-04-21 08:19 | 33.14848 | -116.36073 | 13361 ft | 279 kts | 206° |
| 2026-04-21 08:19 | 33.13105 | -116.37091 | 12944 ft | 280 kts | 206° |
| 2026-04-21 08:19 | 33.11358 | -116.38111 | 12518 ft | 280 kts | 206° |
| 2026-04-21 08:20 | 33.09613 | -116.39131 | 12111 ft | 278 kts | 206° |
| 2026-04-21 08:20 | 33.07890 | -116.40136 | 11826 ft | 273 kts | 206° |
| 2026-04-21 08:20 | 33.06196 | -116.41124 | 11554 ft | 270 kts | 206° |
| 2026-04-21 08:20 | 33.04518 | -116.42103 | 11280 ft | 268 kts | 206° |
| 2026-04-21 08:21 | 33.02842 | -116.43080 | 11005 ft | 267 kts | 206° |
| 2026-04-21 08:21 | 33.01184 | -116.44072 | 10729 ft | 266 kts | 209° |
| 2026-04-21 08:21 | 32.99666 | -116.45308 | 10457 ft | 264 kts | 219° |
| 2026-04-21 08:21 | 32.98254 | -116.46704 | 10181 ft | 263 kts | 220° |
| 2026-04-21 08:22 | 32.96867 | -116.48115 | 9908 ft | 262 kts | 220° |
| 2026-04-21 08:22 | 32.95485 | -116.49519 | 9642 ft | 260 kts | 220° |
| 2026-04-21 08:22 | 32.94110 | -116.50914 | 9438 ft | 260 kts | 220° |
| 2026-04-21 08:22 | 32.92730 | -116.52309 | 9262 ft | 265 kts | 220° |
| 2026-04-21 08:23 | 32.91289 | -116.53765 | 9096 ft | 277 kts | 220° |
| 2026-04-21 08:23 | 32.89828 | -116.55239 | 8942 ft | 280 kts | 220° |
| 2026-04-21 08:23 | 32.88343 | -116.56736 | 8791 ft | 280 kts | 220° |
| 2026-04-21 08:23 | 32.86880 | -116.58209 | 8642 ft | 279 kts | 220° |
| 2026-04-21 08:24 | 32.85401 | -116.59699 | 8492 ft | 278 kts | 220° |
| 2026-04-21 08:24 | 32.83930 | -116.61183 | 8342 ft | 277 kts | 220° |
| 2026-04-21 08:24 | 32.82465 | -116.62664 | 8193 ft | 276 kts | 220° |
| 2026-04-21 08:24 | 32.80997 | -116.64139 | 8043 ft | 276 kts | 220° |
| 2026-04-21 08:25 | 32.79534 | -116.65608 | 7893 ft | 275 kts | 220° |
| 2026-04-21 08:25 | 32.78085 | -116.67090 | 7741 ft | 274 kts | 223° |
| 2026-04-21 08:25 | 32.77245 | -116.68212 | 7644 ft | 274 kts | 234° |
| 2026-04-21 08:25 | 32.76241 | -116.70127 | 7495 ft | 273 kts | 240° |
| 2026-04-21 08:26 | 32.75316 | -116.72095 | 7345 ft | 272 kts | 241° |
| 2026-04-21 08:26 | 32.74101 | -116.74697 | 7147 ft | 272 kts | 240° |
| 2026-04-21 08:26 | 32.73183 | -116.76656 | 6996 ft | 271 kts | 240° |
| 2026-04-21 08:26 | 32.72264 | -116.78602 | 6846 ft | 270 kts | 240° |
| 2026-04-21 08:27 | 32.71344 | -116.80545 | 6659 ft | 270 kts | 240° |
| 2026-04-21 08:27 | 32.70775 | -116.81855 | 6440 ft | 269 kts | 245° |
| 2026-04-21 08:27 | 32.70082 | -116.83889 | 6096 ft | 264 kts | 249° |
| 2026-04-21 08:27 | 32.69452 | -116.85914 | 5750 ft | 259 kts | 250° |
| 2026-04-21 08:28 | 32.68934 | -116.87945 | 5396 ft | 255 kts | 261° |
| 2026-04-21 08:28 | 32.68896 | -116.90029 | 5057 ft | 252 kts | 272° |
| 2026-04-21 08:28 | 32.69015 | -116.92092 | 4710 ft | 249 kts | 274° |
| 2026-04-21 08:28 | 32.69145 | -116.94129 | 4363 ft | 246 kts | 274° |
| 2026-04-21 08:29 | 32.69269 | -116.96148 | 4011 ft | 247 kts | 274° |
| 2026-04-21 08:29 | 32.69386 | -116.98126 | 3659 ft | 231 kts | 273° |
| 2026-04-21 08:29 | 32.69490 | -116.99925 | 3330 ft | 206 kts | 273° |
| 2026-04-21 08:29 | 32.69582 | -117.01531 | 3051 ft | 186 kts | 273° |
| 2026-04-21 08:30 | 32.69664 | -117.02979 | 2936 ft | 164 kts | 273° |
| 2026-04-21 08:30 | 32.69830 | -117.04250 | 2748 ft | 149 kts | 281° |
| 2026-04-21 08:30 | 32.70063 | -117.05402 | 2557 ft | 139 kts | 284° |
| 2026-04-21 08:30 | 32.70318 | -117.06479 | 2344 ft | 132 kts | 285° |
| 2026-04-21 08:31 | 32.70591 | -117.07507 | 2137 ft | 130 kts | 287° |
| 2026-04-21 08:31 | 32.70864 | -117.08528 | 1933 ft | 130 kts | 286° |
| 2026-04-21 08:31 | 32.71123 | -117.09553 | 1715 ft | 129 kts | 284° |
| 2026-04-21 08:31 | 32.71362 | -117.10581 | 1513 ft | 129 kts | 284° |
| 2026-04-21 08:32 | 32.71590 | -117.11608 | 1332 ft | 128 kts | 283° |
| 2026-04-21 08:32 | 32.71816 | -117.12631 | 1149 ft | 128 kts | 284° |
| 2026-04-21 08:32 | 32.72049 | -117.13655 | 942 ft | 128 kts | 284° |
| 2026-04-21 08:32 | 32.72311 | -117.14659 | 734 ft | 127 kts | 286° |
| 2026-04-21 08:33 | 32.72567 | -117.15672 | 550 ft | 129 kts | 284° |
| 2026-04-21 08:33 | 32.72804 | -117.16693 | 342 ft | 129 kts | 284° |
| 2026-04-21 08:33 | 32.73046 | -117.17709 | 131 ft | 127 kts | 284° |
| 2026-04-21 08:33 | 32.73274 | -117.18673 | 36 ft | 117 kts | 284° |
| 2026-04-21 08:34 | 32.73484 | -117.19509 | 30 ft | 83 kts | 288° |
| 2026-04-21 08:34 | 32.73572 | -117.19842 | 32 ft | 15 kts | 286° |
| 2026-04-21 08:34 | 32.73606 | -117.19987 | 29 ft | 20 kts | 286° |
| 2026-04-21 08:34 | 32.73630 | -117.20156 | 29 ft | 22 kts | 250° |
| 2026-04-21 08:35 | 32.73581 | -117.20220 | 29 ft | 7 kts | 227° |
| 2026-04-21 08:35 | 32.73577 | -117.20291 | 28 ft | 12 kts | 290° |
| 2026-04-21 08:35 | 32.73602 | -117.20411 | 24 ft | 18 kts | 274° |
| 2026-04-21 08:35 | 32.73597 | -117.20481 | 23 ft | 4 kts | 242° |
| 2026-04-21 08:36 | 32.73559 | -117.20506 | 23 ft | 8 kts | 191° |
| 2026-04-21 08:36 | 32.73498 | -117.20533 | 25 ft | 10 kts | 213° |
| 2026-04-21 08:36 | 32.73423 | -117.20558 | 27 ft | 12 kts | 179° |
| 2026-04-21 08:36 | 32.73343 | -117.20560 | 29 ft | 10 kts | 162° |
| 2026-04-21 08:37 | 32.73265 | -117.20541 | 27 ft | 3 kts | 170° |
| 2026-04-21 08:37 | 32.73262 | -117.20541 | 27 ft | 2 kts | 170° |
| 2026-04-21 08:37 | 32.73256 | -117.20539 | 27 ft | 0 kts | 170° |